Time,TemperatureF,DewpointF,PressureIn,WindDirection,WindDirectionDegrees,WindSpeedMPH,WindSpeedGustMPH,Humidity,HourlyPrecipIn,Conditions,Clouds,dailyrainin,SoftwareType,DateUTC
2013-05-29 00:18:00,72.4,60.0,30.01,ENE,57,1.0,5.0,66,0.00,,,0.00,weatherlink.com 1.10,2013-05-29 04:18:00,
2013-05-29 00:36:00,73.0,60.0,30.01,NE,34,2.0,5.0,65,0.00,,,0.00,weatherlink.com 1.10,2013-05-29 04:36:00,
2013-05-29 00:54:00,73.0,60.0,30.00,ENE,75,2.0,5.0,65,0.00,,,0.00,weatherlink.com 1.10,2013-05-29 04:54:00,
2013-05-29 01:14:00,73.0,60.0,30.01,ENE,58,2.0,6.0,65,0.00,,,0.00,weatherlink.com 1.10,2013-05-29 05:14:00,
2013-05-29 01:32:00,70.9,61.0,30.01,ENE,65,0.0,1.0,70,0.00,,,0.00,weatherlink.com 1.10,2013-05-29 05:32:00,
2013-05-29 01:50:00,71.4,61.0,30.01,ENE,57,4.0,8.0,69,0.00,,,0.00,weatherlink.com 1.10,2013-05-29 05:50:00,
2013-05-29 02:10:00,72.4,61.0,30.01,ENE,60,3.0,6.0,67,0.00,,,0.00,weatherlink.com 1.10,2013-05-29 06:10:00,
2013-05-29 02:28:00,71.6,60.0,30.01,ENE,74,0.0,6.0,68,0.00,,,0.00,weatherlink.com 1.10,2013-05-29 06:28:00,
2013-05-29 02:46:00,70.8,61.0,30.01,ENE,65,2.0,8.0,70,0.00,,,0.00,weatherlink.com 1.10,2013-05-29 06:46:00,
2013-05-29 03:04:00,71.3,61.0,30.01,East,99,4.0,7.0,69,0.00,,,0.00,weatherlink.com 1.10,2013-05-29 07:04:00,
2013-05-29 03:24:00,71.9,60.0,30.01,ENE,64,2.0,7.0,67,0.00,,,0.00,weatherlink.com 1.10,2013-05-29 07:24:00,
2013-05-29 03:42:00,71.9,60.0,30.02,NE,34,3.0,8.0,67,0.00,,,0.00,weatherlink.com 1.10,2013-05-29 07:42:00,
2013-05-29 04:20:00,71.9,60.0,30.00,NNE,27,4.0,11.0,66,0.00,,,0.00,weatherlink.com 1.10,2013-05-29 08:20:00,
2013-05-29 04:38:00,71.7,60.0,30.01,NE,56,3.0,9.0,66,0.00,,,0.00,weatherlink.com 1.10,2013-05-29 08:38:00,
2013-05-29 04:56:00,71.4,59.0,30.02,NE,51,3.0,11.0,66,0.00,,,0.00,weatherlink.com 1.10,2013-05-29 08:56:00,
2013-05-29 05:16:00,70.5,59.0,30.02,ENE,68,3.0,8.0,67,0.00,,,0.00,weatherlink.com 1.10,2013-05-29 09:16:00,
2013-05-29 05:34:00,70.6,59.0,30.02,NNE,30,6.0,11.0,66,0.00,,,0.00,weatherlink.com 1.10,2013-05-29 09:34:00,
2013-05-29 05:52:00,69.8,59.0,30.03,NE,39,5.0,6.0,68,0.00,,,0.00,weatherlink.com 1.10,2013-05-29 09:52:00,
2013-05-29 06:12:00,69.5,58.0,30.03,NE,51,3.0,8.0,68,0.00,,,0.00,weatherlink.com 1.10,2013-05-29 10:12:00,
2013-05-29 06:29:00,69.4,59.0,30.04,ESE,112,5.0,8.0,69,0.00,,,0.00,weatherlink.com 1.10,2013-05-29 10:29:00,
2013-05-29 06:47:00,69.4,59.0,30.04,NE,41,6.0,10.0,69,0.00,,,0.00,weatherlink.com 1.10,2013-05-29 10:47:00,
2013-05-29 07:07:00,69.7,59.0,30.05,East,81,6.0,14.0,68,0.00,,,0.00,weatherlink.com 1.10,2013-05-29 11:07:00,
2013-05-29 07:25:00,70.1,59.0,30.06,NE,37,2.0,9.0,69,0.00,,,0.00,weatherlink.com 1.10,2013-05-29 11:25:00,
2013-05-29 07:43:00,70.6,60.0,30.06,NE,53,6.0,7.0,69,0.00,,,0.00,weatherlink.com 1.10,2013-05-29 11:43:00,
2013-05-29 08:03:00,71.6,60.0,30.06,NE,46,5.0,16.0,66,0.00,,,0.00,weatherlink.com 1.10,2013-05-29 12:03:00,
2013-05-29 08:21:00,72.3,61.0,30.05,East,99,5.0,10.0,67,0.00,,,0.00,weatherlink.com 1.10,2013-05-29 12:21:00,
2013-05-29 08:39:00,73.1,61.0,30.06,NE,49,5.0,12.0,66,0.00,,,0.00,weatherlink.com 1.10,2013-05-29 12:39:00,
2013-05-29 08:59:00,74.3,62.0,30.06,ESE,102,6.0,10.0,65,0.00,,,0.00,weatherlink.com 1.10,2013-05-29 12:59:00,
2013-05-29 09:17:00,75.0,62.0,30.07,ENE,63,8.0,12.0,65,0.00,,,0.00,weatherlink.com 1.10,2013-05-29 13:17:00,
2013-05-29 09:35:00,75.6,62.0,30.07,ENE,67,4.0,12.0,63,0.00,,,0.00,weatherlink.com 1.10,2013-05-29 13:35:00,
2013-05-29 09:53:00,76.7,63.0,30.07,ENE,63,2.0,12.0,63,0.00,,,0.00,weatherlink.com 1.10,2013-05-29 13:53:00,
2013-05-29 10:13:00,77.4,63.0,30.07,ESE,106,6.0,17.0,61,0.00,,,0.00,weatherlink.com 1.10,2013-05-29 14:13:00,
2013-05-29 10:31:00,77.9,63.0,30.07,NE,37,6.0,18.0,61,0.00,,,0.00,weatherlink.com 1.10,2013-05-29 14:31:00,
2013-05-29 10:49:00,78.0,62.0,30.07,NE,41,4.0,17.0,59,0.00,,,0.00,weatherlink.com 1.10,2013-05-29 14:49:00,
2013-05-29 11:09:00,77.4,63.0,30.07,ENE,67,6.0,12.0,62,0.00,,,0.00,weatherlink.com 1.10,2013-05-29 15:09:00,
2013-05-29 11:27:00,78.2,65.0,30.06,NE,52,3.0,17.0,64,0.00,,,0.00,weatherlink.com 1.10,2013-05-29 15:27:00,
2013-05-29 11:45:00,79.3,63.0,30.07,NE,50,5.0,14.0,58,0.00,,,0.00,weatherlink.com 1.10,2013-05-29 15:45:00,
2013-05-29 12:05:00,79.0,63.0,30.07,NE,50,3.0,14.0,59,0.00,,,0.00,weatherlink.com 1.10,2013-05-29 16:05:00,
2013-05-29 12:23:00,79.6,65.0,30.07,ESE,117,4.0,15.0,62,0.00,,,0.00,weatherlink.com 1.10,2013-05-29 16:23:00,
2013-05-29 12:41:00,80.2,63.0,30.07,ESE,110,8.0,12.0,56,0.00,,,0.00,weatherlink.com 1.10,2013-05-29 16:41:00,
2013-05-29 12:59:00,80.7,63.0,30.07,NE,52,8.0,13.0,55,0.00,,,0.00,weatherlink.com 1.10,2013-05-29 16:59:00,
2013-05-29 13:19:00,80.3,64.0,30.06,NNE,16,5.0,16.0,57,0.00,,,0.00,weatherlink.com 1.10,2013-05-29 17:19:00,
2013-05-29 13:37:00,81.4,64.0,30.06,NNE,26,3.0,13.0,55,0.00,,,0.00,weatherlink.com 1.10,2013-05-29 17:37:00,
2013-05-29 13:55:00,81.1,64.0,30.05,NE,50,9.0,12.0,57,0.00,,,0.00,weatherlink.com 1.10,2013-05-29 17:55:00,
2013-05-29 14:15:00,81.7,64.0,30.05,ENE,60,8.0,12.0,55,0.00,,,0.00,weatherlink.com 1.10,2013-05-29 18:15:00,
2013-05-29 14:33:00,81.7,64.0,30.05,ESE,103,6.0,16.0,55,0.00,,,0.00,weatherlink.com 1.10,2013-05-29 18:33:00,
2013-05-29 14:51:00,82.3,64.0,30.05,NE,39,2.0,13.0,54,0.00,,,0.00,weatherlink.com 1.10,2013-05-29 18:51:00,
2013-05-29 15:11:00,82.4,63.0,30.05,NE,53,9.0,15.0,52,0.00,,,0.00,weatherlink.com 1.10,2013-05-29 19:11:00,
2013-05-29 15:29:00,82.7,62.0,30.05,ENE,57,10.0,16.0,50,0.00,,,0.00,weatherlink.com 1.10,2013-05-29 19:29:00,
2013-05-29 15:47:00,82.8,63.0,30.05,South,172,2.0,14.0,52,0.00,,,0.00,weatherlink.com 1.10,2013-05-29 19:47:00,
2013-05-29 16:05:00,83.8,63.0,30.04,ESE,110,5.0,16.0,49,0.00,,,0.00,weatherlink.com 1.10,2013-05-29 20:05:00,
2013-05-29 16:25:00,83.3,63.0,30.04,NNE,30,2.0,12.0,50,0.00,,,0.00,weatherlink.com 1.10,2013-05-29 20:25:00,
2013-05-29 16:43:00,83.0,63.0,30.04,NE,41,6.0,9.0,51,0.00,,,0.00,weatherlink.com 1.10,2013-05-29 20:43:00,
2013-05-29 17:01:00,82.8,63.0,30.03,NNE,18,5.0,13.0,52,0.00,,,0.00,weatherlink.com 1.10,2013-05-29 21:01:00,
2013-05-29 17:21:00,83.6,65.0,30.03,East,101,7.0,12.0,53,0.00,,,0.00,weatherlink.com 1.10,2013-05-29 21:21:00,
2013-05-29 17:39:00,84.0,63.0,30.03,NE,56,7.0,12.0,50,0.00,,,0.00,weatherlink.com 1.10,2013-05-29 21:39:00,
2013-05-29 17:56:00,83.4,63.0,30.03,ENE,70,4.0,12.0,50,0.00,,,0.00,weatherlink.com 1.10,2013-05-29 21:56:00,
2013-05-29 18:14:00,83.6,61.0,30.03,ENE,68,7.0,7.0,47,0.00,,,0.00,weatherlink.com 1.10,2013-05-29 22:14:00,
2013-05-29 18:32:00,83.2,61.0,30.03,ENE,63,9.0,10.0,47,0.00,,,0.00,weatherlink.com 1.10,2013-05-29 22:32:00,
2013-05-29 18:52:00,83.3,61.0,30.03,NE,56,6.0,9.0,47,0.00,,,0.00,weatherlink.com 1.10,2013-05-29 22:52:00,
2013-05-29 19:09:00,83.1,61.0,30.03,NE,49,4.0,6.0,48,0.00,,,0.00,weatherlink.com 1.10,2013-05-29 23:09:00,
2013-05-29 19:27:00,82.8,61.0,30.03,ENE,57,7.0,7.0,47,0.00,,,0.00,weatherlink.com 1.10,2013-05-29 23:27:00,
2013-05-29 19:47:00,81.9,60.0,30.03,NE,53,7.0,8.0,47,0.00,,,0.00,weatherlink.com 1.10,2013-05-29 23:47:00,
2013-05-29 20:05:00,80.8,60.0,30.03,NE,56,3.0,8.0,49,0.00,,,0.00,weatherlink.com 1.10,2013-05-30 00:05:00,
2013-05-29 20:23:00,79.6,60.0,30.03,NE,36,0.0,5.0,51,0.00,,,0.00,weatherlink.com 1.10,2013-05-30 00:23:00,
2013-05-29 20:41:00,77.4,60.0,30.04,NE,42,1.0,2.0,56,0.00,,,0.00,weatherlink.com 1.10,2013-05-30 00:41:00,
2013-05-29 20:58:00,74.5,61.0,30.04,NE,44,0.0,0.0,62,0.00,,,0.00,weatherlink.com 1.10,2013-05-30 00:58:00,
2013-05-29 21:13:00,73.1,61.0,30.04,NE,41,0.0,1.0,65,0.00,,,0.00,weatherlink.com 1.10,2013-05-30 01:13:00,
2013-05-29 21:28:00,71.8,60.0,30.04,NE,41,0.0,2.0,67,0.00,,,0.00,weatherlink.com 1.10,2013-05-30 01:28:00,
2013-05-29 21:42:00,71.1,60.0,30.04,NE,41,0.0,1.0,69,0.00,,,0.00,weatherlink.com 1.10,2013-05-30 01:42:00,
2013-05-29 21:58:00,70.9,60.0,30.04,NE,41,0.0,1.0,68,0.00,,,0.00,weatherlink.com 1.10,2013-05-30 01:58:00,
2013-05-29 22:12:00,70.7,60.0,30.05,NE,41,0.0,1.0,69,0.00,,,0.00,weatherlink.com 1.10,2013-05-30 02:12:00,
2013-05-29 22:27:00,70.6,60.0,30.05,NE,44,0.0,1.0,70,0.00,,,0.00,weatherlink.com 1.10,2013-05-30 02:27:00,
2013-05-29 22:42:00,69.6,60.0,30.05,NE,44,0.0,0.0,72,0.00,,,0.00,weatherlink.com 1.10,2013-05-30 02:42:00,
2013-05-29 22:57:00,69.2,60.0,30.05,NE,44,0.0,0.0,72,0.00,,,0.00,weatherlink.com 1.10,2013-05-30 02:57:00,
2013-05-29 23:12:00,69.1,60.0,30.05,ENE,64,0.0,0.0,73,0.00,,,0.00,weatherlink.com 1.10,2013-05-30 03:12:00,
2013-05-29 23:27:00,68.1,60.0,30.05,ENE,64,0.0,0.0,74,0.00,,,0.00,weatherlink.com 1.10,2013-05-30 03:27:00,
2013-05-29 23:42:00,68.1,60.0,30.06,ENE,64,0.0,0.0,76,0.00,,,0.00,weatherlink.com 1.10,2013-05-30 03:42:00,
2013-05-29 23:57:00,68.3,60.0,30.06,ENE,64,0.0,1.0,76,0.00,,,0.00,weatherlink.com 1.10,2013-05-30 03:57:00,